Date,TemperatureHighF,TemperatureAvgF,TemperatureLowF,DewpointHighF,DewpointAvgF,DewpointLowF,HumidityHigh,HumidityAvg,HumidityLow,PressureMaxIn,PressureMinIn,WindSpeedMaxMPH,WindSpeedAvgMPH,GustSpeedMaxMPH,PrecipitationSumIn
2013-11-1,72.1,65.1,55.6,63.8,56.8,49.8,94,76,48,29.77,29.52,8,3,12,0.13
2013-11-2,68.9,55.5,48.3,52.8,45.1,36.8,97,72,39,29.76,29.58,4,0,6,0.00
2013-11-3,51.4,44.6,33.8,43.0,31.1,19.7,83,60,42,30.42,29.76,8,3,13,0.00
2013-11-4,46.1,37.6,30.0,26.0,16.4,9.7,72,44,23,30.63,30.42,7,2,12,0.00
2013-11-5,55.6,44.6,32.8,41.0,33.9,25.7,83,67,49,30.63,30.44,3,1,7,0.00
2013-11-6,61.3,51.6,39.9,50.7,43.9,38.2,96,77,54,30.46,30.04,3,1,7,0.00
2013-11-7,62.3,53.1,40.5,58.2,47.4,30.6,96,81,56,30.04,29.71,5,2,11,0.11
2013-11-8,50.4,43.3,38.5,32.6,26.3,19.0,74,53,31,30.18,29.90,6,2,12,0.00
2013-11-9,50.2,42.6,33.1,31.4,25.6,20.1,77,53,31,30.26,29.96,5,2,8,0.00
2013-11-10,60.9,48.3,39.5,38.5,31.1,25.6,79,53,28,30.01,29.77,9,3,20,0.00
2013-11-11,53.2,47.9,40.5,30.5,25.8,22.6,52,42,33,30.17,29.93,6,2,9,0.00
2013-11-12,50.5,38.6,29.8,34.1,22.6,11.8,84,54,35,30.25,29.90,8,3,16,0.03
2013-11-13,39.9,32.7,27.0,18.1,12.8,4.9,63,45,24,30.34,30.24,7,2,11,0.00
2013-11-14,52.9,41.6,30.7,18.7,13.4,7.8,60,35,17,30.24,30.11,6,2,12,0.00
2013-11-15,58.7,44.3,28.7,27.1,20.9,12.2,75,43,16,30.21,30.12,4,0,6,0.00
2013-11-16,62.0,49.6,38.8,47.4,39.0,27.0,95,69,44,30.29,30.19,3,1,6,0.00
2013-11-17,59.0,53.0,44.1,58.2,51.8,42.6,98,96,90,30.24,29.76,2,0,5,0.00
2013-11-18,65.0,58.7,49.6,59.6,39.0,21.8,98,55,22,29.76,29.56,8,3,17,0.20
2013-11-19,49.6,43.6,35.3,27.8,22.5,18.0,51,43,37,30.31,29.75,8,5,17,0.00
2013-11-20,44.5,36.0,29.7,19.5,12.9,-0.9,64,42,16,30.58,30.31,7,2,12,0.00
2013-11-21,51.4,40.8,26.0,41.8,29.1,16.7,75,64,44,30.58,30.35,5,1,8,0.00
2013-11-22,57.8,52.2,47.0,49.7,46.0,38.5,94,80,68,30.35,29.87,4,1,8,0.04
2013-11-23,53.5,41.8,28.7,48.1,22.2,2.5,86,48,27,30.02,29.86,7,4,15,0.00
2013-11-24,29.8,25.3,22.1,4.9,0.9,-8.1,44,35,19,30.33,29.98,11,5,17,0.00
2013-11-25,35.9,28.4,20.5,11.4,8.2,4.0,57,43,29,30.44,30.29,7,3,11,0.00
2013-11-26,43.5,35.9,32.5,43.0,22.7,11.4,98,62,37,30.30,29.76,4,2,7,0.54
2013-11-27,59.9,46.3,33.7,59.9,43.4,17.0,100,90,50,29.74,29.31,9,4,17,2.30
2013-11-28,35.8,31.3,27.9,17.5,10.8,3.8,60,43,27,30.43,29.69,7,3,14,0.01
2013-11-29,38.8,32.5,27.3,20.7,15.8,10.2,70,50,40,30.70,30.43,6,2,10,0.00
2013-11-30,35.8,30.1,21.6,25.4,15.1,9.6,68,54,36,30.73,30.35,4,1,6,0.00